createdAt,value
2022-11-24T00:01:43.642Z,31.63
2022-11-24T00:04:12.918Z,33.90
2022-11-24T00:06:39.207Z,32.40
2022-11-24T00:09:05.985Z,35.47
2022-11-24T00:11:33.218Z,35.07
2022-11-24T00:13:59.712Z,33.60
2022-11-24T00:16:33.013Z,34.70
2022-11-24T00:19:00.232Z,34.20
2022-11-24T00:21:27.369Z,34.73
2022-11-24T00:23:53.979Z,33.63
2022-11-24T00:26:21.844Z,33.50
2022-11-24T00:28:48.716Z,34.90
2022-11-24T00:31:26.871Z,34.63
2022-11-24T00:33:54.367Z,32.97
2022-11-24T00:36:21.301Z,32.97
2022-11-24T00:38:47.837Z,33.37
2022-11-24T00:41:14.236Z,33.07
2022-11-24T00:43:40.512Z,32.80
2022-11-24T00:46:06.879Z,33.13
2022-11-24T00:48:33.318Z,33.87
2022-11-24T00:51:07.162Z,33.93
2022-11-24T00:53:33.390Z,35.40
2022-11-24T00:55:59.782Z,33.20
2022-11-24T00:58:26.418Z,32.97
2022-11-24T01:00:53.038Z,33.97
2022-11-24T01:03:19.706Z,32.97
2022-11-24T01:05:45.929Z,34.67
2022-11-24T01:08:12.347Z,33.73
2022-11-24T01:10:38.639Z,32.87
2022-11-24T01:13:05.317Z,35.27
2022-11-24T01:15:31.538Z,34.87
2022-11-24T01:17:57.785Z,33.47
2022-11-24T01:20:24.569Z,34.53
2022-11-24T01:22:50.906Z,33.77
2022-11-24T01:25:17.213Z,33.97
2022-11-24T01:27:43.455Z,33.20
2022-11-24T01:30:10.075Z,33.60
2022-11-24T01:32:37.261Z,33.83
2022-11-24T01:35:03.795Z,34.77
2022-11-24T01:37:30.002Z,34.30
2022-11-24T01:39:56.302Z,33.97
2022-11-24T01:42:22.710Z,34.80
2022-11-24T01:44:51.286Z,35.07
2022-11-24T01:47:33.913Z,32.97
2022-11-24T01:50:01.563Z,35.20
2022-11-24T01:52:30.519Z,34.93
2022-11-24T01:54:59.646Z,35.93
2022-11-24T01:57:27.854Z,34.30
2022-11-24T01:59:56.129Z,36.70
2022-11-24T02:02:22.597Z,35.03
2022-11-24T02:04:50.086Z,35.87
2022-11-24T02:07:16.384Z,34.50
2022-11-24T02:09:54.587Z,34.07
2022-11-24T02:12:22.087Z,34.63
2022-11-24T02:14:48.333Z,34.23
2022-11-24T02:17:14.637Z,33.37
2022-11-24T02:19:40.840Z,33.10
2022-11-24T02:22:10.690Z,34.20
2022-11-24T02:24:44.951Z,34.20
2022-11-24T02:27:11.503Z,31.50
2022-11-24T02:29:38.021Z,31.83
2022-11-24T02:32:06.118Z,31.57
2022-11-24T02:34:34.043Z,32.13
2022-11-24T02:37:00.607Z,32.43
2022-11-24T02:39:26.898Z,31.87
2022-11-24T02:41:54.528Z,33.13
2022-11-24T02:44:22.190Z,32.37
2022-11-24T02:46:48.391Z,32.10
2022-11-24T02:49:15.667Z,32.20
2022-11-24T02:51:41.877Z,31.23
2022-11-24T02:54:08.112Z,33.27
2022-11-24T02:56:34.328Z,30.13
2022-11-24T02:59:00.543Z,31.60
2022-11-24T03:01:26.916Z,32.33
2022-11-24T03:03:53.245Z,31.03
2022-11-24T03:06:19.447Z,31.73
2022-11-24T03:08:45.731Z,31.73
2022-11-24T03:11:12.136Z,29.50
2022-11-24T03:13:38.351Z,32.73
2022-11-24T03:16:07.709Z,32.73
2022-11-24T03:18:33.958Z,31.20
2022-11-24T03:21:00.202Z,31.13
2022-11-24T03:23:26.538Z,32.53
2022-11-24T03:25:52.759Z,30.87
2022-11-24T03:28:18.982Z,31.00
2022-11-24T03:30:47.775Z,31.23
2022-11-24T03:33:17.118Z,30.77
2022-11-24T03:35:43.995Z,31.40
2022-11-24T03:38:10.209Z,30.70
2022-11-24T03:40:36.485Z,29.97
2022-11-24T03:43:02.686Z,29.70
2022-11-24T03:48:16.205Z,32.00
2022-11-24T03:50:42.636Z,29.17
2022-11-24T03:53:09.019Z,30.03
2022-11-24T03:55:35.670Z,29.97
2022-11-24T03:58:02.132Z,31.40
2022-11-24T04:00:28.365Z,30.77
2022-11-24T04:02:54.728Z,31.23
2022-11-24T04:05:20.994Z,30.63
2022-11-24T04:07:47.240Z,30.57
2022-11-24T04:10:13.669Z,29.80
2022-11-24T04:12:46.035Z,30.43
2022-11-24T04:15:13.359Z,30.77
2022-11-24T04:17:39.639Z,31.10
2022-11-24T04:20:06.517Z,30.43
2022-11-24T04:22:32.769Z,31.23
2022-11-24T04:24:58.991Z,31.50
2022-11-24T04:27:25.203Z,29.57
2022-11-24T04:29:51.429Z,29.97
2022-11-24T04:32:17.633Z,29.73
2022-11-24T04:34:43.894Z,28.93
2022-11-24T04:37:10.176Z,29.20
2022-11-24T04:39:36.396Z,30.07
2022-11-24T04:42:02.643Z,27.47
2022-11-24T04:44:28.897Z,27.17
2022-11-24T04:46:55.204Z,28.87
2022-11-24T04:49:21.480Z,28.07
2022-11-24T04:51:47.700Z,28.53
2022-11-24T04:54:14.368Z,29.70
2022-11-24T04:56:41.421Z,29.10
2022-11-24T04:59:08.630Z,29.13
2022-11-24T05:01:35.119Z,27.73
2022-11-24T05:04:01.543Z,28.30
2022-11-24T05:06:27.877Z,26.93
2022-11-24T05:08:54.115Z,27.63
2022-11-24T05:11:20.328Z,26.87
2022-11-24T05:13:46.551Z,27.20
2022-11-24T05:16:12.869Z,26.97
2022-11-24T05:18:39.209Z,26.17
2022-11-24T05:21:05.470Z,26.57
2022-11-24T05:23:31.713Z,26.00
2022-11-24T05:26:01.244Z,26.00
2022-11-24T05:28:27.852Z,25.23
2022-11-24T05:30:54.099Z,25.37
2022-11-24T05:33:22.907Z,25.33
2022-11-24T05:35:49.683Z,26.17
2022-11-24T05:38:16.277Z,25.63
2022-11-24T05:40:42.962Z,25.53
2022-11-24T05:43:15.866Z,25.50
2022-11-24T05:45:42.688Z,24.77
2022-11-24T05:48:11.174Z,24.73
2022-11-24T05:50:37.400Z,26.67
2022-11-24T05:53:04.597Z,26.67
2022-11-24T05:55:31.029Z,26.40
2022-11-24T05:57:58.161Z,27.80
2022-11-24T06:00:24.412Z,26.33
2022-11-24T06:02:50.846Z,25.30
2022-11-24T06:05:17.750Z,26.97
2022-11-24T06:07:44.060Z,25.77
2022-11-24T06:10:10.287Z,28.10
2022-11-24T06:12:36.539Z,27.10
2022-11-24T06:15:02.821Z,25.17
2022-11-24T06:17:29.099Z,24.67
2022-11-24T06:19:55.389Z,24.17
2022-11-24T06:22:21.657Z,25.40
2022-11-24T06:24:47.943Z,26.13
2022-11-24T06:27:14.233Z,24.93
2022-11-24T06:29:40.447Z,25.03
2022-11-24T06:32:07.113Z,25.90
2022-11-24T06:34:38.224Z,24.67
2022-11-24T06:37:04.501Z,24.63
2022-11-24T06:39:30.790Z,23.43
2022-11-24T06:41:57.015Z,24.30
2022-11-24T06:44:23.337Z,23.57
2022-11-24T06:46:49.594Z,24.53
2022-11-24T06:49:16.702Z,23.87
2022-11-24T06:51:43.047Z,22.97
2022-11-24T06:54:10.077Z,22.97
2022-11-24T06:56:36.496Z,23.67
2022-11-24T06:59:02.883Z,23.23
2022-11-24T07:01:29.674Z,22.83
2022-11-24T07:03:56.536Z,22.47
2022-11-24T07:06:23.628Z,23.20
2022-11-24T07:08:50.305Z,22.83
2022-11-24T07:11:19.917Z,23.70
2022-11-24T07:13:46.331Z,25.03
2022-11-24T07:16:14.272Z,22.77
2022-11-24T07:18:40.799Z,22.73
2022-11-24T07:21:07.139Z,24.47
2022-11-24T07:23:33.359Z,23.47
2022-11-24T07:26:06.569Z,22.10
2022-11-24T07:28:33.511Z,22.73
2022-11-24T07:31:04.324Z,22.60
2022-11-24T07:33:30.554Z,21.77
2022-11-24T07:35:59.507Z,22.23
2022-11-24T07:38:25.955Z,22.20
2022-11-24T07:40:52.198Z,23.37
2022-11-24T07:43:20.256Z,21.90
2022-11-24T07:45:51.793Z,22.97
2022-11-24T07:48:18.039Z,23.37
2022-11-24T07:50:44.338Z,24.17
2022-11-24T07:53:10.597Z,23.93
2022-11-24T07:55:36.998Z,24.13
2022-11-24T07:58:03.332Z,24.03
2022-11-24T08:00:29.791Z,25.73
2022-11-24T08:02:56.163Z,24.23
2022-11-24T08:05:22.454Z,23.30
2022-11-24T08:07:48.731Z,23.47
2022-11-24T08:10:15.395Z,23.07
2022-11-24T08:12:43.805Z,22.27
2022-11-24T08:15:11.387Z,22.90
2022-11-24T08:17:37.813Z,21.23
2022-11-24T08:20:04.248Z,21.80
2022-11-24T08:22:30.511Z,22.37
2022-11-24T08:24:56.809Z,21.93
2022-11-24T08:27:23.085Z,23.03
2022-11-24T08:29:49.324Z,22.13
2022-11-24T08:32:21.717Z,22.93
2022-11-24T08:34:48.705Z,22.07
2022-11-24T08:37:14.939Z,22.83
2022-11-24T08:39:41.141Z,23.90
2022-11-24T08:42:07.402Z,22.30
2022-11-24T08:44:33.961Z,24.27
2022-11-24T08:47:00.555Z,22.63
2022-11-24T08:49:26.824Z,23.90
2022-11-24T08:51:53.059Z,23.27
2022-11-24T08:54:19.281Z,23.73
2022-11-24T08:56:46.099Z,22.90
2022-11-24T08:59:13.805Z,23.17
2022-11-24T09:01:41.558Z,23.20
2022-11-24T09:04:08.217Z,23.67
2022-11-24T09:06:34.538Z,23.80
2022-11-24T09:09:01.493Z,21.23
2022-11-24T09:11:28.031Z,24.27
2022-11-24T09:13:54.830Z,24.57
2022-11-24T09:16:22.488Z,24.47
2022-11-24T09:18:54.426Z,22.10
2022-11-24T09:21:21.406Z,24.30
2022-11-24T09:23:48.941Z,24.00
2022-11-24T09:26:19.438Z,23.30
2022-11-24T09:28:46.018Z,25.07
2022-11-24T09:31:14.784Z,23.90
2022-11-24T09:33:41.397Z,24.17
2022-11-24T09:36:07.732Z,23.33
2022-11-24T09:38:33.963Z,25.27
2022-11-24T09:41:19.094Z,23.73
2022-11-24T09:44:04.208Z,23.40
2022-11-24T09:46:49.053Z,25.43
2022-11-24T09:49:16.840Z,24.10
2022-11-24T09:51:44.773Z,24.37
2022-11-24T09:54:16.969Z,24.47
2022-11-24T09:56:43.868Z,24.10
2022-11-24T09:59:15.481Z,22.33
2022-11-24T10:01:42.540Z,23.90
2022-11-24T10:04:18.259Z,23.87
2022-11-24T10:06:47.996Z,23.47
2022-11-24T10:09:14.247Z,22.50
2022-11-24T10:11:58.952Z,22.50
2022-11-24T10:14:28.251Z,23.63
2022-11-24T10:16:54.484Z,24.40
2022-11-24T10:19:21.935Z,22.57
2022-11-24T10:21:59.916Z,24.00
2022-11-24T10:24:49.211Z,23.73
2022-11-24T10:27:17.534Z,22.90
2022-11-24T10:29:44.392Z,25.13
2022-11-24T10:32:22.393Z,23.83
2022-11-24T10:34:50.522Z,24.13
2022-11-24T10:37:28.286Z,23.97
2022-11-24T10:40:00.366Z,24.03
2022-11-24T10:42:31.594Z,23.77
2022-11-24T10:45:01.551Z,24.90
2022-11-24T10:47:28.280Z,23.73
2022-11-24T10:50:02.780Z,23.33
2022-11-24T10:52:29.964Z,23.67
2022-11-24T10:54:57.943Z,24.77
2022-11-24T10:57:34.772Z,22.50
2022-11-24T11:00:02.323Z,23.80
2022-11-24T11:02:36.857Z,23.63
2022-11-24T11:05:21.778Z,23.83
2022-11-24T11:07:48.162Z,23.33
2022-11-24T11:10:19.466Z,23.37
2022-11-24T11:12:46.011Z,24.13
2022-11-24T11:15:22.942Z,22.93
2022-11-24T11:17:50.346Z,23.07
2022-11-24T11:20:18.109Z,24.27
2022-11-24T11:22:46.879Z,23.40
2022-11-24T11:25:14.096Z,23.80
2022-11-24T11:27:41.018Z,24.40
2022-11-24T11:36:08.833Z,23.47
2022-11-24T11:38:37.194Z,23.37
2022-11-24T11:41:04.331Z,24.87
2022-11-24T11:43:34.451Z,24.77
2022-11-24T11:46:05.932Z,23.53
2022-11-24T11:48:42.273Z,24.67
2022-11-24T11:51:23.389Z,24.50
2022-11-24T11:53:57.142Z,24.43
2022-11-24T11:56:46.685Z,24.93
2022-11-24T11:59:23.105Z,23.50
2022-11-24T12:02:15.989Z,24.70
2022-11-24T12:04:47.094Z,23.97
2022-11-24T12:07:24.606Z,22.10
2022-11-24T12:09:56.969Z,23.20
2022-11-24T12:12:31.120Z,23.13
2022-11-24T12:15:10.769Z,24.10
2022-11-24T12:17:45.545Z,23.70
2022-11-24T12:20:36.204Z,23.83
2022-11-24T12:23:05.647Z,24.30
2022-11-24T12:25:38.160Z,22.53
2022-11-24T12:28:07.222Z,22.63
2022-11-24T12:30:40.335Z,23.67
2022-11-24T12:33:25.139Z,21.90
2022-11-24T12:36:07.140Z,22.00
2022-11-24T12:38:54.467Z,22.77
2022-11-24T12:41:42.646Z,21.20
2022-11-24T12:44:27.928Z,22.93
2022-11-24T12:47:02.892Z,21.77
2022-11-24T12:49:43.185Z,22.63
2022-11-24T12:52:20.290Z,21.43
2022-11-24T12:54:46.513Z,22.87
2022-11-24T12:57:34.913Z,22.90
2022-11-24T13:00:19.262Z,22.73
2022-11-24T13:02:51.669Z,22.47
2022-11-24T13:05:20.828Z,21.13
2022-11-24T13:07:55.183Z,20.90
2022-11-24T13:10:46.455Z,20.23
2022-11-24T13:13:11.803Z,21.10
2022-11-24T13:18:56.831Z,21.50
2022-11-24T13:21:41.544Z,22.30
2022-11-24T13:24:17.499Z,21.53
2022-11-24T13:26:48.990Z,21.93
2022-11-24T13:29:25.521Z,21.93
2022-11-24T13:31:51.998Z,21.80
2022-11-24T13:34:37.142Z,21.93
2022-11-24T13:37:28.972Z,22.33
2022-11-24T13:39:50.910Z,22.67
2022-11-24T13:42:42.609Z,23.30
2022-11-24T13:45:06.913Z,22.43
2022-11-24T13:47:37.791Z,21.57
2022-11-24T13:50:05.971Z,21.67
2022-11-24T13:52:46.106Z,22.60
2022-11-24T13:55:12.291Z,21.43
2022-11-24T13:57:39.562Z,22.67
2022-11-24T14:00:18.428Z,22.53
2022-11-24T14:02:45.250Z,22.50
2022-11-24T14:05:18.441Z,21.43
2022-11-24T14:07:45.673Z,22.33
2022-11-24T14:10:19.879Z,22.63
2022-11-24T14:12:46.102Z,21.60
2022-11-24T14:15:25.796Z,22.00
2022-11-24T14:17:52.030Z,22.00
2022-11-24T14:20:26.032Z,20.90
2022-11-24T14:22:52.313Z,20.13
2022-11-24T14:25:26.593Z,21.87
2022-11-24T14:27:52.858Z,20.93
2022-11-24T14:30:20.813Z,19.63
2022-11-24T14:32:59.309Z,20.47
2022-11-24T14:35:27.079Z,21.30
2022-11-24T14:37:53.491Z,20.33
2022-11-24T14:40:38.610Z,21.57
2022-11-24T14:43:25.223Z,21.57
2022-11-24T14:45:53.492Z,20.97
2022-11-24T14:48:23.071Z,21.13
2022-11-24T14:50:49.282Z,23.23
2022-11-24T14:53:19.007Z,21.73
2022-11-24T14:56:06.011Z,21.90
2022-11-24T14:58:36.489Z,24.37
2022-11-24T15:01:19.062Z,23.47
2022-11-24T15:04:11.637Z,24.27
2022-11-24T15:06:40.679Z,23.97
2022-11-24T15:09:07.220Z,24.47
2022-11-24T15:11:34.132Z,24.03
2022-11-24T15:14:00.444Z,23.63
2022-11-24T15:16:28.944Z,25.83
2022-11-24T15:19:00.105Z,23.90
2022-11-24T15:21:29.867Z,25.60
2022-11-24T15:24:15.685Z,24.93
2022-11-24T15:26:42.532Z,24.07
2022-11-24T15:29:09.254Z,23.50
2022-11-24T15:31:35.679Z,25.17
2022-11-24T15:34:02.312Z,23.97
2022-11-24T15:36:28.525Z,23.93
2022-11-24T15:38:54.812Z,24.43
2022-11-24T15:41:22.437Z,24.23
2022-11-24T15:43:48.672Z,24.33
2022-11-24T15:46:15.007Z,23.57
2022-11-24T15:48:41.303Z,24.40
2022-11-24T15:51:11.163Z,24.70
2022-11-24T15:54:03.564Z,24.80
2022-11-24T15:56:36.815Z,23.90
2022-11-24T15:59:03.759Z,25.93
2022-11-24T16:01:31.393Z,23.07
2022-11-24T16:03:57.915Z,24.07
2022-11-24T16:06:25.489Z,22.77
2022-11-24T16:08:52.521Z,23.07
2022-11-24T16:11:18.803Z,23.07
2022-11-24T16:13:51.581Z,22.67
2022-11-24T16:16:19.068Z,22.37
2022-11-24T16:18:45.501Z,23.13
2022-11-24T16:21:11.837Z,22.20
2022-11-24T16:23:38.080Z,24.37
2022-11-24T16:26:04.872Z,22.67
2022-11-24T16:28:31.154Z,23.97
2022-11-24T16:30:57.478Z,21.87
2022-11-24T16:33:24.038Z,22.90
2022-11-24T16:35:50.433Z,24.37
2022-11-24T16:38:17.251Z,23.97
2022-11-24T16:40:43.571Z,24.40
2022-11-24T16:43:10.187Z,24.83
2022-11-24T16:45:38.539Z,25.67
2022-11-24T16:48:08.486Z,25.17
2022-11-24T16:50:35.675Z,25.77
2022-11-24T16:53:02.089Z,25.20
2022-11-24T16:55:29.388Z,25.07
2022-11-24T16:57:55.683Z,25.03
2022-11-24T17:00:21.922Z,24.53
2022-11-24T17:02:48.267Z,25.27
2022-11-24T17:05:14.567Z,24.63
2022-11-24T17:07:40.947Z,24.83
2022-11-24T17:10:07.627Z,25.30
2022-11-24T17:12:34.954Z,24.67
2022-11-24T17:15:31.093Z,23.83
2022-11-24T17:18:16.356Z,25.23
2022-11-24T17:20:35.964Z,24.83
2022-11-24T17:23:02.357Z,24.87
2022-11-24T17:25:28.585Z,25.70
2022-11-24T17:27:54.824Z,25.33
2022-11-24T17:30:22.179Z,24.67
2022-11-24T17:32:51.244Z,25.40
2022-11-24T17:35:21.475Z,26.03
2022-11-24T17:37:47.733Z,26.27
2022-11-24T17:40:28.569Z,26.40
2022-11-24T17:42:59.445Z,26.23
2022-11-24T17:45:26.510Z,27.27
2022-11-24T17:47:52.890Z,26.27
2022-11-24T17:50:22.535Z,25.60
2022-11-24T17:52:52.203Z,26.67
2022-11-24T17:55:18.409Z,26.63
2022-11-24T17:57:44.669Z,25.90
2022-11-24T18:00:11.286Z,26.53
2022-11-24T18:02:40.317Z,26.73
2022-11-24T18:05:06.825Z,28.97
2022-11-24T18:07:34.940Z,28.30
2022-11-24T18:10:01.189Z,27.33
2022-11-24T18:12:27.405Z,27.30
2022-11-24T18:14:53.607Z,26.17
2022-11-24T18:17:21.161Z,27.43
2022-11-24T18:19:47.366Z,26.30
2022-11-24T18:22:13.593Z,27.07
2022-11-24T18:24:40.118Z,26.27
2022-11-24T18:27:06.617Z,25.47
2022-11-24T18:29:32.849Z,23.97
2022-11-24T18:31:59.152Z,25.60
2022-11-24T18:34:25.844Z,25.40
2022-11-24T18:36:53.001Z,26.23
2022-11-24T18:39:19.367Z,24.97
2022-11-24T18:41:46.200Z,25.13
2022-11-24T18:44:12.520Z,24.70
2022-11-24T18:46:39.011Z,24.87
2022-11-24T18:49:06.799Z,24.90
2022-11-24T18:51:33.297Z,24.17
2022-11-24T18:53:59.937Z,24.70
2022-11-24T18:56:26.643Z,25.93
2022-11-24T18:58:53.668Z,25.93
2022-11-24T19:01:23.880Z,24.73
2022-11-24T19:03:54.025Z,25.63
2022-11-24T19:06:21.810Z,26.30
2022-11-24T19:08:48.448Z,26.33
2022-11-24T19:11:24.870Z,26.50
2022-11-24T19:13:51.471Z,24.57
2022-11-24T19:16:18.939Z,26.27
2022-11-24T19:18:48.905Z,27.47
2022-11-24T19:21:19.592Z,27.57
2022-11-24T19:23:45.866Z,27.93
2022-11-24T19:26:12.122Z,28.60
2022-11-24T19:28:38.406Z,27.70
2022-11-24T19:31:06.066Z,28.20
2022-11-24T19:33:35.587Z,26.63
2022-11-24T19:36:06.407Z,27.50
2022-11-24T19:38:34.825Z,27.37
2022-11-24T19:41:05.070Z,26.90
2022-11-24T19:43:31.627Z,28.20
2022-11-24T19:46:05.113Z,27.60
2022-11-24T19:48:32.455Z,27.33
2022-11-24T19:50:59.710Z,26.07
2022-11-24T19:53:25.948Z,26.47
2022-11-24T19:55:52.175Z,25.67
2022-11-24T19:58:18.431Z,27.60
2022-11-24T20:00:44.635Z,25.63
2022-11-24T20:03:14.363Z,25.83
2022-11-24T20:05:40.581Z,26.53
2022-11-24T20:08:06.820Z,24.90
2022-11-24T20:10:33.037Z,25.43
2022-11-24T20:12:59.262Z,26.37
2022-11-24T20:15:25.498Z,25.13
2022-11-24T20:17:52.524Z,25.53
2022-11-24T20:20:19.079Z,26.13
2022-11-24T20:22:45.298Z,28.20
2022-11-24T20:25:11.505Z,25.47
2022-11-24T20:27:37.742Z,26.97
2022-11-24T20:30:04.192Z,26.03
2022-11-24T20:32:30.440Z,26.47
2022-11-24T20:34:56.704Z,25.67
2022-11-24T20:37:23.322Z,25.67
2022-11-24T20:39:50.339Z,25.77
2022-11-24T20:42:16.558Z,26.50
2022-11-24T20:44:42.769Z,26.00
2022-11-24T20:47:09.000Z,25.40
2022-11-24T20:49:35.215Z,25.27
2022-11-24T20:52:01.766Z,27.10
2022-11-24T20:54:28.141Z,26.97
2022-11-24T20:56:54.494Z,25.00
2022-11-24T20:59:22.247Z,26.07
2022-11-24T21:01:49.917Z,25.93
2022-11-24T21:04:21.334Z,24.73
2022-11-24T21:06:47.781Z,26.00
2022-11-24T21:09:14.092Z,24.40
2022-11-24T21:11:40.439Z,25.60
2022-11-24T21:14:07.226Z,24.20
2022-11-24T21:16:34.602Z,24.57
2022-11-24T21:19:01.919Z,24.17
2022-11-24T21:21:33.324Z,23.73
2022-11-24T21:24:03.971Z,24.57
2022-11-24T21:26:30.291Z,24.30
2022-11-24T21:28:57.038Z,25.30
2022-11-24T21:31:23.311Z,24.73
2022-11-24T21:33:50.741Z,22.93
2022-11-24T21:36:18.269Z,24.33
2022-11-24T21:38:48.999Z,23.77
2022-11-24T21:41:15.298Z,23.87
2022-11-24T21:43:41.516Z,22.93
2022-11-24T21:46:09.192Z,22.33
2022-11-24T21:48:36.316Z,22.17
2022-11-24T21:51:05.183Z,21.13
2022-11-24T21:53:32.770Z,21.43
2022-11-24T21:56:00.377Z,21.93
2022-11-24T21:58:26.941Z,23.67
2022-11-24T22:00:53.452Z,21.93
2022-11-24T22:03:20.403Z,22.53
2022-11-24T22:05:59.522Z,22.13
2022-11-24T22:08:26.850Z,22.73
2022-11-24T22:10:53.294Z,22.53
2022-11-24T22:13:19.935Z,20.90
2022-11-24T22:15:46.161Z,21.50
2022-11-24T22:18:12.410Z,21.53
2022-11-24T22:20:38.645Z,20.63
2022-11-24T22:23:05.088Z,20.13
2022-11-24T22:25:31.300Z,19.40
2022-11-24T22:27:58.221Z,19.63
2022-11-24T22:30:24.422Z,20.20
2022-11-24T22:32:50.736Z,21.23
2022-11-24T22:35:16.937Z,22.40
2022-11-24T22:37:43.150Z,20.50
2022-11-24T22:40:09.433Z,20.50
2022-11-24T22:42:35.657Z,18.97
2022-11-24T22:45:01.857Z,20.70
2022-11-24T22:47:28.073Z,17.73
2022-11-24T22:49:54.287Z,18.87
2022-11-24T22:52:20.527Z,19.57
2022-11-24T22:54:47.013Z,19.73
2022-11-24T22:57:13.218Z,18.40
2022-11-24T22:59:39.440Z,17.27
2022-11-24T23:02:05.662Z,17.80
2022-11-24T23:04:32.467Z,17.33
2022-11-24T23:06:58.763Z,17.47
2022-11-24T23:09:25.059Z,17.07
2022-11-24T23:11:51.270Z,16.27
2022-11-24T23:14:17.552Z,17.27
2022-11-24T23:16:43.927Z,16.03
2022-11-24T23:19:10.342Z,16.20
2022-11-24T23:21:38.346Z,16.70
2022-11-24T23:24:05.391Z,15.90
2022-11-24T23:26:33.391Z,16.93
2022-11-24T23:28:59.996Z,16.73
2022-11-24T23:31:28.858Z,16.70
2022-11-24T23:33:56.002Z,16.67
2022-11-24T23:36:22.515Z,16.77
2022-11-24T23:38:48.808Z,16.40
2022-11-24T23:41:16.842Z,15.93
2022-11-24T23:43:43.589Z,15.70
2022-11-24T23:46:10.993Z,15.90
2022-11-24T23:48:37.714Z,15.53
2022-11-24T23:51:07.930Z,15.13
2022-11-24T23:53:35.038Z,16.03
2022-11-24T23:56:01.558Z,15.40
2022-11-24T23:58:28.073Z,15.43
